createdAt,value
2018-03-06T00:00:25.901Z,3.99
2018-03-06T00:01:25.897Z,4.05
2018-03-06T00:02:25.902Z,4.16
2018-03-06T00:03:25.859Z,4.08
2018-03-06T00:04:25.885Z,4.01
2018-03-06T00:05:25.832Z,3.95
2018-03-06T00:06:25.818Z,3.99
2018-03-06T00:07:25.804Z,3.94
2018-03-06T00:08:25.795Z,4.01
2018-03-06T00:09:25.776Z,4.04
2018-03-06T00:10:25.763Z,4.06
2018-03-06T00:11:25.748Z,4.02
2018-03-06T00:12:25.734Z,4.01
2018-03-06T00:13:25.734Z,3.98
2018-03-06T00:14:25.955Z,3.96
2018-03-06T00:15:25.708Z,4.10
2018-03-06T00:16:25.679Z,4.05
2018-03-06T00:17:25.702Z,4.10
2018-03-06T00:18:25.652Z,4.08
2018-03-06T00:19:25.637Z,3.99
2018-03-06T00:20:25.672Z,4.01
2018-03-06T00:21:25.626Z,4.13
2018-03-06T00:22:25.596Z,4.06
2018-03-06T00:23:25.607Z,4.05
2018-03-06T00:24:25.570Z,4.26
2018-03-06T00:25:25.555Z,4.32
2018-03-06T00:26:25.558Z,4.32
2018-03-06T00:27:25.527Z,4.32
2018-03-06T00:28:25.518Z,4.35
2018-03-06T00:29:25.500Z,4.37
2018-03-06T00:30:25.486Z,4.28
2018-03-06T00:31:25.485Z,4.37
2018-03-06T00:32:25.497Z,4.44
2018-03-06T00:33:25.458Z,4.50
2018-03-06T00:34:25.449Z,4.45
2018-03-06T00:35:25.424Z,4.41
2018-03-06T00:36:25.403Z,4.48
2018-03-06T00:37:25.390Z,4.41
2018-03-06T00:38:25.413Z,4.40
2018-03-06T00:39:25.372Z,4.44
2018-03-06T00:40:25.352Z,4.48
2018-03-06T00:41:25.339Z,4.62
2018-03-06T00:42:25.323Z,4.66
2018-03-06T00:43:25.307Z,4.63
2018-03-06T00:44:25.314Z,4.77
2018-03-06T00:45:25.279Z,4.80
2018-03-06T00:46:25.269Z,4.84
2018-03-06T00:47:25.252Z,4.73
2018-03-06T00:48:25.238Z,4.74
2018-03-06T00:49:25.228Z,4.86
2018-03-06T00:50:25.255Z,4.87
2018-03-06T00:51:25.204Z,4.82
2018-03-06T00:52:25.235Z,4.84
2018-03-06T00:53:25.170Z,4.73
2018-03-06T00:54:25.160Z,4.78
2018-03-06T00:55:25.162Z,4.75
2018-03-06T00:56:25.143Z,4.82
2018-03-06T00:57:25.122Z,4.87
2018-03-06T00:58:25.150Z,4.96
2018-03-06T00:59:25.088Z,4.97
2018-03-06T01:00:25.074Z,5.00
2018-03-06T01:01:25.078Z,4.93
2018-03-06T01:02:25.047Z,4.93
2018-03-06T01:03:25.030Z,5.07
2018-03-06T01:04:25.017Z,5.00
2018-03-06T01:05:25.003Z,5.07
2018-03-06T01:06:24.989Z,5.04
2018-03-06T01:07:24.975Z,5.05
2018-03-06T01:08:25.034Z,5.02
2018-03-06T01:09:24.977Z,5.04
2018-03-06T01:10:24.945Z,5.15
2018-03-06T01:11:24.924Z,5.11
2018-03-06T01:12:24.911Z,5.11
2018-03-06T01:13:24.893Z,5.05
2018-03-06T01:14:24.933Z,5.10
2018-03-06T01:15:24.886Z,5.11
2018-03-06T01:16:24.861Z,5.12
2018-03-06T01:17:24.837Z,5.10
2018-03-06T01:18:24.827Z,5.11
2018-03-06T01:19:24.819Z,5.02
2018-03-06T01:20:24.798Z,5.04
2018-03-06T01:21:24.785Z,4.97
2018-03-06T01:22:24.768Z,5.04
2018-03-06T01:23:24.755Z,4.96
2018-03-06T01:24:24.741Z,4.94
2018-03-06T01:25:24.728Z,4.94
2018-03-06T01:26:24.715Z,4.99
2018-03-06T01:27:24.729Z,5.10
2018-03-06T01:28:24.693Z,5.10
2018-03-06T01:29:24.891Z,5.11
2018-03-06T01:30:24.660Z,5.11
2018-03-06T01:31:24.644Z,5.11
2018-03-06T01:32:24.650Z,5.15
2018-03-06T01:33:24.650Z,5.15
2018-03-06T01:34:24.609Z,5.11
2018-03-06T01:35:24.640Z,5.11
2018-03-06T01:36:24.578Z,5.10
2018-03-06T01:37:24.564Z,5.07
2018-03-06T01:38:24.562Z,5.12
2018-03-06T01:39:24.535Z,5.05
2018-03-06T01:40:24.522Z,5.07
2018-03-06T01:41:24.508Z,5.17
2018-03-06T01:42:24.494Z,5.11
2018-03-06T01:43:24.480Z,5.14
2018-03-06T01:44:24.467Z,5.08
2018-03-06T01:45:24.473Z,5.10
2018-03-06T01:46:24.441Z,5.11
2018-03-06T01:47:24.447Z,5.11
2018-03-06T01:48:24.411Z,5.14
2018-03-06T01:49:24.398Z,5.11
2018-03-06T01:50:24.385Z,5.10
2018-03-06T01:51:24.391Z,5.11
2018-03-06T01:52:24.357Z,5.11
2018-03-06T01:53:24.361Z,5.05
2018-03-06T01:54:24.331Z,4.97
2018-03-06T01:55:24.317Z,5.04
2018-03-06T01:56:24.304Z,4.96
2018-03-06T01:57:24.290Z,4.92
2018-03-06T01:58:24.277Z,4.86
2018-03-06T01:59:24.264Z,4.92
2018-03-06T02:00:24.250Z,4.89
2018-03-06T02:01:24.238Z,4.87
2018-03-06T02:02:24.224Z,4.89
2018-03-06T02:03:24.222Z,4.87
2018-03-06T02:04:24.252Z,4.92
2018-03-06T02:05:24.208Z,4.90
2018-03-06T02:06:24.171Z,4.86
2018-03-06T02:07:24.155Z,4.89
2018-03-06T02:08:24.141Z,4.93
2018-03-06T02:09:24.158Z,4.87
2018-03-06T02:10:24.115Z,4.90
2018-03-06T02:11:24.119Z,4.77
2018-03-06T02:12:24.087Z,4.78
2018-03-06T02:13:24.074Z,4.77
2018-03-06T02:14:24.060Z,4.75
2018-03-06T02:15:24.045Z,4.77
2018-03-06T02:16:24.031Z,4.75
2018-03-06T02:17:24.018Z,4.80
2018-03-06T02:18:24.004Z,4.74
2018-03-06T02:19:23.990Z,4.71
2018-03-06T02:20:23.976Z,4.75
2018-03-06T02:21:23.976Z,4.67
2018-03-06T02:22:24.175Z,4.67
2018-03-06T02:23:23.953Z,4.67
2018-03-06T02:24:23.921Z,4.71
2018-03-06T02:25:23.943Z,4.77
2018-03-06T02:26:23.893Z,4.71
2018-03-06T02:27:23.885Z,4.68
2018-03-06T02:28:23.866Z,4.78
2018-03-06T02:29:23.866Z,4.82
2018-03-06T02:30:23.844Z,4.82
2018-03-06T02:31:23.858Z,4.80
2018-03-06T02:32:23.810Z,4.84
2018-03-06T02:33:23.796Z,4.84
2018-03-06T02:34:23.782Z,4.84
2018-03-06T02:35:23.768Z,4.75
2018-03-06T02:36:23.754Z,4.74
2018-03-06T02:37:23.741Z,4.73
2018-03-06T02:38:23.727Z,4.67
2018-03-06T02:39:23.713Z,4.68
2018-03-06T02:40:23.734Z,4.68
2018-03-06T02:41:23.700Z,4.71
2018-03-06T02:42:23.672Z,4.60
2018-03-06T02:43:23.668Z,4.58
2018-03-06T02:44:23.642Z,4.55
2018-03-06T02:45:23.630Z,4.53
2018-03-06T02:46:23.624Z,4.52
2018-03-06T02:47:23.612Z,4.62
2018-03-06T02:48:23.587Z,4.60
2018-03-06T02:49:23.585Z,4.59
2018-03-06T02:50:23.559Z,4.67
2018-03-06T02:51:23.545Z,4.55
2018-03-06T02:52:23.532Z,4.67
2018-03-06T02:53:23.518Z,4.70
2018-03-06T02:54:23.504Z,4.67
2018-03-06T02:55:23.490Z,4.62
2018-03-06T02:56:23.476Z,4.55
2018-03-06T02:57:23.463Z,4.67
2018-03-06T02:58:23.475Z,4.63
2018-03-06T02:59:23.446Z,4.63
2018-03-06T03:00:23.645Z,4.59
2018-03-06T03:01:23.413Z,4.55
2018-03-06T03:02:23.395Z,4.52
2018-03-06T03:03:23.407Z,4.59
2018-03-06T03:04:23.364Z,4.60
2018-03-06T03:05:23.363Z,4.59
2018-03-06T03:06:23.575Z,4.58
2018-03-06T03:07:23.328Z,4.48
2018-03-06T03:08:23.309Z,4.42
2018-03-06T03:09:23.315Z,4.42
2018-03-06T03:10:23.281Z,4.37
2018-03-06T03:11:23.267Z,4.37
2018-03-06T03:12:23.256Z,4.34
2018-03-06T03:13:23.239Z,4.35
2018-03-06T03:14:23.225Z,4.20
2018-03-06T03:15:23.217Z,4.17
2018-03-06T03:16:23.196Z,4.19
2018-03-06T03:17:23.193Z,4.08
2018-03-06T03:18:23.203Z,4.17
2018-03-06T03:19:23.163Z,4.02
2018-03-06T03:20:23.141Z,4.06
2018-03-06T03:21:23.131Z,4.10
2018-03-06T03:22:23.112Z,4.01
2018-03-06T03:23:23.110Z,3.95
2018-03-06T03:24:23.116Z,4.06
2018-03-06T03:25:23.077Z,3.92
2018-03-06T03:26:23.053Z,3.91
2018-03-06T03:27:23.043Z,3.88
2018-03-06T03:28:23.024Z,3.81
2018-03-06T03:29:23.010Z,3.70
2018-03-06T03:30:22.997Z,3.69
2018-03-06T03:31:22.982Z,3.70
2018-03-06T03:32:22.967Z,3.55
2018-03-06T03:33:22.952Z,3.62
2018-03-06T03:34:22.938Z,3.47
2018-03-06T03:35:22.922Z,3.42
2018-03-06T03:36:22.916Z,3.44
2018-03-06T03:37:22.908Z,3.47
2018-03-06T03:38:22.932Z,3.42
2018-03-06T03:39:22.875Z,3.56
2018-03-06T03:40:22.850Z,3.66
2018-03-06T03:41:22.870Z,3.53
2018-03-06T03:42:22.848Z,3.63
2018-03-06T03:43:22.825Z,3.66
2018-03-06T03:44:22.823Z,3.58
2018-03-06T03:45:22.791Z,3.62
2018-03-06T03:46:22.767Z,3.55
2018-03-06T03:47:22.782Z,3.58
2018-03-06T03:48:22.736Z,3.59
2018-03-06T03:49:22.719Z,3.58
2018-03-06T03:50:22.705Z,3.53
2018-03-06T03:51:22.689Z,3.53
2018-03-06T03:52:22.675Z,3.50
2018-03-06T03:53:22.661Z,3.48
2018-03-06T03:54:22.648Z,3.40
2018-03-06T03:55:22.632Z,3.37
2018-03-06T03:56:22.615Z,3.22
2018-03-06T03:57:22.622Z,3.13
2018-03-06T03:58:22.587Z,3.01
2018-03-06T03:59:22.591Z,3.01
2018-03-06T04:00:22.556Z,3.08
2018-03-06T04:01:22.542Z,3.14
2018-03-06T04:02:22.527Z,3.08
2018-03-06T04:03:22.513Z,3.03
2018-03-06T04:04:22.498Z,3.10
2018-03-06T04:05:22.490Z,3.07
2018-03-06T04:06:22.467Z,3.16
2018-03-06T04:07:22.459Z,3.25
2018-03-06T04:08:22.436Z,3.18
2018-03-06T04:09:22.421Z,3.26
2018-03-06T04:10:22.409Z,3.26
2018-03-06T04:11:22.390Z,3.25
2018-03-06T04:12:22.375Z,3.32
2018-03-06T04:13:22.360Z,3.25
2018-03-06T04:14:22.349Z,3.16
2018-03-06T04:15:22.329Z,3.26
2018-03-06T04:16:22.314Z,3.47
2018-03-06T04:17:22.316Z,3.34
2018-03-06T04:18:22.319Z,3.36
2018-03-06T04:19:22.287Z,3.25
2018-03-06T04:20:22.257Z,3.19
2018-03-06T04:21:22.276Z,3.22
2018-03-06T04:22:22.224Z,3.11
2018-03-06T04:23:22.207Z,3.04
2018-03-06T04:24:22.208Z,3.11
2018-03-06T04:25:22.203Z,3.04
2018-03-06T04:26:22.164Z,3.13
2018-03-06T04:27:22.361Z,3.21
2018-03-06T04:28:22.134Z,3.14
2018-03-06T04:29:22.116Z,3.10
2018-03-06T04:30:22.113Z,3.03
2018-03-06T04:31:22.085Z,3.07
2018-03-06T04:32:22.071Z,3.05
2018-03-06T04:33:22.056Z,3.00
2018-03-06T04:34:22.041Z,3.03
2018-03-06T04:35:22.026Z,2.95
2018-03-06T04:36:22.010Z,3.00
2018-03-06T04:37:21.994Z,2.87
2018-03-06T04:38:21.988Z,2.86
2018-03-06T04:39:22.000Z,2.77
2018-03-06T04:40:21.964Z,2.80
2018-03-06T04:41:21.937Z,2.87
2018-03-06T04:42:21.928Z,2.95
2018-03-06T04:43:21.902Z,2.97
2018-03-06T04:44:21.889Z,3.10
2018-03-06T04:45:21.872Z,3.05
2018-03-06T04:46:21.883Z,3.18
2018-03-06T04:47:21.840Z,3.21
2018-03-06T04:48:21.843Z,3.23
2018-03-06T04:49:21.810Z,3.32
2018-03-06T04:50:21.795Z,3.37
2018-03-06T04:51:21.778Z,3.44
2018-03-06T04:52:21.765Z,3.44
2018-03-06T04:53:21.748Z,3.40
2018-03-06T04:54:21.734Z,3.40
2018-03-06T04:55:21.717Z,3.23
2018-03-06T04:56:21.702Z,3.21
2018-03-06T04:57:21.687Z,3.21
2018-03-06T04:58:21.671Z,3.13
2018-03-06T04:59:21.655Z,3.16
2018-03-06T05:00:21.669Z,3.18
2018-03-06T05:01:21.637Z,3.21
2018-03-06T05:02:21.664Z,3.01
2018-03-06T05:03:21.603Z,3.04
2018-03-06T05:04:21.578Z,3.00
2018-03-06T05:05:21.563Z,3.07
2018-03-06T05:06:21.572Z,2.97
2018-03-06T05:07:21.535Z,2.95
2018-03-06T05:08:21.526Z,2.80
2018-03-06T05:09:21.723Z,2.86
2018-03-06T05:10:21.492Z,2.87
2018-03-06T05:11:21.470Z,2.79
2018-03-06T05:12:21.485Z,2.75
2018-03-06T05:13:21.440Z,2.75
2018-03-06T05:14:21.425Z,2.75
2018-03-06T05:15:21.408Z,2.80
2018-03-06T05:16:21.394Z,2.77
2018-03-06T05:17:21.378Z,2.71
2018-03-06T05:18:21.363Z,2.64
2018-03-06T05:19:21.348Z,2.83
2018-03-06T05:20:21.333Z,2.79
2018-03-06T05:21:21.317Z,2.68
2018-03-06T05:22:21.328Z,2.64
2018-03-06T05:23:21.286Z,2.74
2018-03-06T05:24:21.294Z,2.72
2018-03-06T05:25:21.256Z,2.77
2018-03-06T05:26:21.241Z,2.80
2018-03-06T05:27:21.225Z,2.80
2018-03-06T05:28:21.210Z,2.80
2018-03-06T05:29:21.200Z,2.77
2018-03-06T05:30:21.212Z,2.77
2018-03-06T05:31:21.171Z,2.85
2018-03-06T05:32:21.149Z,2.74
2018-03-06T05:33:21.144Z,2.79
2018-03-06T05:34:21.118Z,2.74
2018-03-06T05:35:21.101Z,2.68
2018-03-06T05:36:21.087Z,2.80
2018-03-06T05:37:21.072Z,2.80
2018-03-06T05:38:21.056Z,2.89
2018-03-06T05:39:21.040Z,2.83
2018-03-06T05:40:21.033Z,2.80
2018-03-06T05:41:21.013Z,2.87
2018-03-06T05:42:20.994Z,2.92
2018-03-06T05:43:20.999Z,2.90
2018-03-06T05:44:20.971Z,2.97
2018-03-06T05:45:20.948Z,2.97
2018-03-06T05:46:20.933Z,3.01
2018-03-06T05:47:20.918Z,3.05
2018-03-06T05:48:20.901Z,3.05
2018-03-06T05:49:20.886Z,3.01
2018-03-06T05:50:20.871Z,3.05
2018-03-06T05:51:20.855Z,3.01
2018-03-06T05:52:20.840Z,2.98
2018-03-06T05:53:20.825Z,2.95
2018-03-06T05:54:20.815Z,3.04
2018-03-06T05:55:20.806Z,3.00
2018-03-06T05:56:20.779Z,2.80
2018-03-06T05:57:20.791Z,2.83
2018-03-06T05:58:20.749Z,2.90
2018-03-06T05:59:20.959Z,2.92
2018-03-06T06:00:20.723Z,2.85
2018-03-06T06:01:20.719Z,2.86
2018-03-06T06:02:20.731Z,2.83
2018-03-06T06:03:20.682Z,2.89
2018-03-06T06:04:20.658Z,2.93
2018-03-06T06:05:20.644Z,2.92
2018-03-06T06:06:20.628Z,2.85
2018-03-06T06:07:20.636Z,2.92
2018-03-06T06:08:20.597Z,2.85
2018-03-06T06:09:20.786Z,2.89
2018-03-06T06:10:20.571Z,2.82
2018-03-06T06:11:20.552Z,2.93
2018-03-06T06:12:20.537Z,3.00
2018-03-06T06:13:20.563Z,2.95
2018-03-06T06:14:20.509Z,3.00
2018-03-06T06:15:20.495Z,3.04
2018-03-06T06:16:20.478Z,3.01
2018-03-06T06:17:20.463Z,2.98
2018-03-06T06:18:20.447Z,3.00
2018-03-06T06:19:20.438Z,2.98
2018-03-06T06:20:20.416Z,2.97
2018-03-06T06:21:20.422Z,3.01
2018-03-06T06:22:20.387Z,3.03
2018-03-06T06:23:20.370Z,3.07
2018-03-06T06:24:20.435Z,3.08
2018-03-06T06:25:20.344Z,3.04
2018-03-06T06:26:20.326Z,3.18
2018-03-06T06:27:20.514Z,3.28
2018-03-06T06:28:20.296Z,3.25
2018-03-06T06:29:20.285Z,3.28
2018-03-06T06:30:20.316Z,3.41
2018-03-06T06:31:20.256Z,3.41
2018-03-06T06:32:20.235Z,3.41
2018-03-06T06:33:20.254Z,3.44
2018-03-06T06:34:20.207Z,3.32
2018-03-06T06:35:20.190Z,3.40
2018-03-06T06:36:20.177Z,3.32
2018-03-06T06:37:20.160Z,3.42
2018-03-06T06:38:20.149Z,3.48
2018-03-06T06:39:20.131Z,3.44
2018-03-06T06:40:20.116Z,3.42
2018-03-06T06:41:20.100Z,3.58
2018-03-06T06:42:20.086Z,3.62
2018-03-06T06:43:20.070Z,3.69
2018-03-06T06:44:20.056Z,3.58
2018-03-06T06:45:20.041Z,3.69
2018-03-06T06:46:20.028Z,3.73
2018-03-06T06:47:20.217Z,3.73
2018-03-06T06:48:19.997Z,3.73
2018-03-06T06:49:19.981Z,3.80
2018-03-06T06:51:19.954Z,3.94
2018-03-06T06:52:19.939Z,3.87
2018-03-06T06:53:19.968Z,4.01
2018-03-06T06:54:19.908Z,3.92
2018-03-06T06:55:19.893Z,4.06
2018-03-06T06:56:19.886Z,4.05
2018-03-06T06:57:19.864Z,4.28
2018-03-06T06:58:19.850Z,4.23
2018-03-06T06:59:19.835Z,4.45
2018-03-06T07:00:19.820Z,4.34
2018-03-06T07:01:19.806Z,4.42
2018-03-06T07:02:19.791Z,4.48
2018-03-06T07:03:19.776Z,4.48
2018-03-06T07:04:19.820Z,4.56
2018-03-06T07:05:19.748Z,4.60
2018-03-06T07:06:19.736Z,4.60
2018-03-06T07:07:19.720Z,4.62
2018-03-06T07:09:19.693Z,4.62
2018-03-06T07:10:19.745Z,4.74
2018-03-06T07:11:19.718Z,4.78
2018-03-06T07:12:19.654Z,4.74
2018-03-06T07:13:19.639Z,4.71
2018-03-06T07:14:19.664Z,4.77
2018-03-06T07:15:19.610Z,4.80
2018-03-06T07:16:19.597Z,4.89
2018-03-06T07:17:19.615Z,4.89
2018-03-06T07:18:19.572Z,4.97
2018-03-06T07:19:19.563Z,5.11
2018-03-06T07:20:19.546Z,5.12
2018-03-06T07:21:19.531Z,5.15
2018-03-06T07:22:19.518Z,5.17
2018-03-06T07:23:19.515Z,5.28
2018-03-06T07:24:19.495Z,5.28
2018-03-06T07:25:19.573Z,5.29
2018-03-06T07:26:19.467Z,5.33
2018-03-06T07:27:19.452Z,5.36
2018-03-06T07:28:19.519Z,5.43
2018-03-06T07:29:19.431Z,5.53
2018-03-06T07:30:19.414Z,5.62
2018-03-06T07:31:19.605Z,5.61
2018-03-06T07:32:19.389Z,5.65
2018-03-06T07:33:19.379Z,5.75
2018-03-06T07:34:19.372Z,5.76
2018-03-06T07:35:19.351Z,5.87
2018-03-06T07:36:19.375Z,5.94
2018-03-06T07:37:19.328Z,5.98
2018-03-06T07:38:19.316Z,6.02
2018-03-06T07:39:19.303Z,6.11
2018-03-06T07:40:19.291Z,6.17
2018-03-06T07:41:19.279Z,6.17
2018-03-06T07:42:19.492Z,6.20
2018-03-06T07:43:19.258Z,6.35
2018-03-06T07:44:19.242Z,6.41
2018-03-06T07:45:19.437Z,6.45
2018-03-06T07:46:19.219Z,6.38
2018-03-06T07:47:19.209Z,6.60
2018-03-06T07:48:19.236Z,6.54
2018-03-06T07:49:19.185Z,6.63
2018-03-06T07:50:19.173Z,6.74
2018-03-06T07:51:19.165Z,6.70
2018-03-06T07:52:19.150Z,6.84
2018-03-06T07:53:19.136Z,6.96
2018-03-06T07:54:19.130Z,6.99
2018-03-06T07:55:19.113Z,7.21
2018-03-06T07:56:19.122Z,7.24
2018-03-06T07:57:19.091Z,7.31
2018-03-06T07:58:19.081Z,7.36
2018-03-06T07:59:19.271Z,7.43
2018-03-06T08:00:19.061Z,7.50
2018-03-06T08:01:19.047Z,7.53
2018-03-06T08:03:19.024Z,7.51
2018-03-06T08:04:19.015Z,7.48
2018-03-06T08:05:19.004Z,7.54
2018-03-06T08:06:18.992Z,7.53
2018-03-06T08:07:18.980Z,7.63
2018-03-06T08:08:18.972Z,7.63
2018-03-06T08:09:18.959Z,7.61
2018-03-06T08:10:19.017Z,7.70
2018-03-06T08:11:18.936Z,7.76
2018-03-06T08:12:18.927Z,7.80
2018-03-06T08:13:19.121Z,7.73
2018-03-06T08:14:18.907Z,7.75
2018-03-06T08:15:18.893Z,7.70
2018-03-06T08:16:19.084Z,7.79
2018-03-06T08:17:18.871Z,7.88
2018-03-06T08:18:18.867Z,7.90
2018-03-06T08:19:18.849Z,7.88
2018-03-06T08:20:18.838Z,7.94
2018-03-06T08:21:18.828Z,7.98
2018-03-06T08:22:18.817Z,8.10
2018-03-06T08:23:18.806Z,8.16
2018-03-06T08:24:18.800Z,8.36
2018-03-06T08:25:18.785Z,8.31
2018-03-06T08:26:18.774Z,8.28
2018-03-06T08:27:18.966Z,8.41
2018-03-06T08:28:18.754Z,8.51
2018-03-06T08:29:18.743Z,8.51
2018-03-06T08:30:18.940Z,8.64
2018-03-06T08:31:18.721Z,8.87
2018-03-06T08:32:18.711Z,8.87
2018-03-06T08:33:18.708Z,8.92
2018-03-06T08:34:18.695Z,8.92
2018-03-06T08:35:18.683Z,9.13
2018-03-06T08:36:18.673Z,9.39
2018-03-06T08:37:18.664Z,9.62
2018-03-06T08:38:18.654Z,9.74
2018-03-06T08:39:18.645Z,9.83
2018-03-06T08:40:18.635Z,9.79
2018-03-06T08:41:18.709Z,9.84
2018-03-06T08:42:18.618Z,9.82
2018-03-06T08:43:18.609Z,9.89
2018-03-06T08:44:18.803Z,9.89
2018-03-06T08:45:18.594Z,9.91
2018-03-06T08:46:18.582Z,9.99
2018-03-06T08:47:18.573Z,9.94
2018-03-06T08:48:18.566Z,9.91
2018-03-06T08:49:18.557Z,9.98
2018-03-06T08:50:18.547Z,9.95
2018-03-06T08:51:18.537Z,10.07
2018-03-06T08:52:18.529Z,9.89
2018-03-06T08:53:18.520Z,10.07
2018-03-06T08:54:18.511Z,9.97
2018-03-06T08:55:18.602Z,9.99
2018-03-06T08:56:18.492Z,10.01
2018-03-06T08:57:18.484Z,10.01
2018-03-06T08:58:18.526Z,10.13
2018-03-06T08:59:18.465Z,10.12
2018-03-06T09:00:18.456Z,10.20
2018-03-06T09:01:18.455Z,10.19
2018-03-06T09:02:18.440Z,10.38
2018-03-06T09:03:18.430Z,10.41
2018-03-06T09:04:18.421Z,10.44
2018-03-06T09:05:18.616Z,10.41
2018-03-06T09:06:18.405Z,10.33
2018-03-06T09:07:18.396Z,10.44
2018-03-06T09:08:18.432Z,10.41
2018-03-06T09:09:18.379Z,10.46
2018-03-06T09:10:18.373Z,10.30
2018-03-06T09:11:18.361Z,10.44
2018-03-06T09:12:18.354Z,10.41
2018-03-06T09:13:18.345Z,10.49
2018-03-06T09:14:18.338Z,10.38
2018-03-06T09:15:18.328Z,10.42
2018-03-06T09:16:18.320Z,10.54
2018-03-06T09:17:18.349Z,10.59
2018-03-06T09:18:18.305Z,10.68
2018-03-06T09:20:18.290Z,10.89
2018-03-06T09:21:18.282Z,11.04
2018-03-06T09:22:18.319Z,11.07
2018-03-06T09:23:18.266Z,10.99
2018-03-06T09:24:18.259Z,11.10
2018-03-06T09:25:18.252Z,11.14
2018-03-06T09:26:18.248Z,11.00
2018-03-06T09:27:18.237Z,11.15
2018-03-06T09:28:18.230Z,11.18
2018-03-06T09:29:18.223Z,11.36
2018-03-06T09:30:18.317Z,11.40
2018-03-06T09:31:18.208Z,11.40
2018-03-06T09:32:18.202Z,11.37
2018-03-06T09:33:18.398Z,11.41
2018-03-06T09:34:18.189Z,11.51
2018-03-06T09:35:18.184Z,11.47
2018-03-06T09:36:18.221Z,11.59
2018-03-06T09:37:18.168Z,11.52
2018-03-06T09:38:18.163Z,11.59
2018-03-06T09:39:18.153Z,11.41
2018-03-06T09:40:18.151Z,11.41
2018-03-06T09:41:18.141Z,11.51
2018-03-06T09:42:18.134Z,11.44
2018-03-06T09:43:18.126Z,11.40
2018-03-06T09:44:18.330Z,11.54
2018-03-06T09:45:18.112Z,11.51
2018-03-06T09:46:18.106Z,11.57
2018-03-06T09:47:18.301Z,11.54
2018-03-06T09:48:18.094Z,11.62
2018-03-06T09:49:18.085Z,11.66
2018-03-06T09:50:18.082Z,11.70
2018-03-06T09:51:18.071Z,11.55
2018-03-06T09:52:18.069Z,11.66
2018-03-06T09:53:18.059Z,11.77
2018-03-06T09:54:18.053Z,11.86
2018-03-06T09:55:18.052Z,11.87
2018-03-06T09:56:18.046Z,11.72
2018-03-06T09:57:18.036Z,11.62
2018-03-06T09:59:18.025Z,11.63
2018-03-06T10:00:18.021Z,11.90
2018-03-06T10:01:18.050Z,11.94
2018-03-06T10:02:18.005Z,12.10
2018-03-06T10:03:18.000Z,12.06
2018-03-06T10:04:17.995Z,12.13
2018-03-06T10:05:18.015Z,12.12
2018-03-06T10:06:17.981Z,12.10
2018-03-06T10:07:17.977Z,12.21
2018-03-06T10:08:17.971Z,12.25
2018-03-06T10:09:17.967Z,12.06
2018-03-06T10:10:17.959Z,12.04
2018-03-06T10:11:17.952Z,11.94
2018-03-06T10:12:17.946Z,11.99
2018-03-06T10:13:18.031Z,11.83
2018-03-06T10:14:17.935Z,12.06
2018-03-06T10:15:17.930Z,12.10
2018-03-06T10:16:17.970Z,12.02
2018-03-06T10:17:17.918Z,12.06
2018-03-06T10:18:17.913Z,12.24
2018-03-06T10:19:17.910Z,12.42
2018-03-06T10:20:17.903Z,12.72
2018-03-06T10:21:17.900Z,12.82
2018-03-06T10:22:17.895Z,12.75
2018-03-06T10:23:17.891Z,12.54
2018-03-06T10:24:17.960Z,12.57
2018-03-06T10:25:17.883Z,12.57
2018-03-06T10:26:17.881Z,12.31
2018-03-06T10:27:17.924Z,12.25
2018-03-06T10:28:17.868Z,12.15
2018-03-06T10:29:17.863Z,12.12
2018-03-06T10:30:17.859Z,11.95
2018-03-06T10:31:17.853Z,11.62
2018-03-06T10:32:17.848Z,11.63
2018-03-06T10:33:17.873Z,11.68
2018-03-06T10:34:17.841Z,11.57
2018-03-06T10:35:17.914Z,11.54
2018-03-06T10:36:17.825Z,11.60
2018-03-06T10:37:17.819Z,11.78
2018-03-06T10:38:18.018Z,11.94
2018-03-06T10:39:17.810Z,12.02
2018-03-06T10:40:17.804Z,11.97
2018-03-06T10:41:17.847Z,11.95
2018-03-06T10:42:17.791Z,12.03
2018-03-06T10:43:17.784Z,11.99
2018-03-06T10:44:17.784Z,12.02
2018-03-06T10:45:17.774Z,12.12
2018-03-06T10:46:17.770Z,12.21
2018-03-06T10:47:17.762Z,12.27
2018-03-06T10:48:17.757Z,12.31
2018-03-06T10:49:17.829Z,12.43
2018-03-06T10:50:17.747Z,12.50
2018-03-06T10:51:17.740Z,12.60
2018-03-06T10:52:17.786Z,12.54
2018-03-06T10:53:17.728Z,12.31
2018-03-06T10:54:17.723Z,12.22
2018-03-06T10:55:17.736Z,12.25
2018-03-06T10:56:17.710Z,12.10
2018-03-06T10:57:17.705Z,12.03
2018-03-06T10:58:17.699Z,11.97
2018-03-06T10:59:17.692Z,11.91
2018-03-06T11:00:17.691Z,11.91
2018-03-06T11:01:17.698Z,11.99
2018-03-06T11:02:17.674Z,11.97
2018-03-06T11:03:17.875Z,11.95
2018-03-06T11:04:17.662Z,11.97
2018-03-06T11:05:17.656Z,12.02
2018-03-06T11:06:17.650Z,11.88
2018-03-06T11:07:17.643Z,12.07
2018-03-06T11:08:17.644Z,12.29
2018-03-06T11:09:17.725Z,12.36
2018-03-06T11:10:17.624Z,12.35
2018-03-06T11:11:17.626Z,12.45
2018-03-06T11:12:17.815Z,12.29
2018-03-06T11:13:17.605Z,12.22
2018-03-06T11:14:17.665Z,12.24
2018-03-06T11:15:17.622Z,12.28
2018-03-06T11:16:17.588Z,12.40
2018-03-06T11:17:17.581Z,12.54
2018-03-06T11:18:17.575Z,12.54
2018-03-06T11:19:17.566Z,12.42
2018-03-06T11:20:17.564Z,12.31
2018-03-06T11:21:17.555Z,12.24
2018-03-06T11:22:17.548Z,12.25
2018-03-06T11:23:17.622Z,12.28
2018-03-06T11:24:17.537Z,12.22
2018-03-06T11:25:17.529Z,12.25
2018-03-06T11:26:17.724Z,12.35
2018-03-06T11:27:17.515Z,12.21
2018-03-06T11:28:17.507Z,12.17
2018-03-06T11:29:17.504Z,12.13
2018-03-06T11:30:17.494Z,12.12
2018-03-06T11:31:17.486Z,12.29
2018-03-06T11:32:17.482Z,12.25
2018-03-06T11:33:17.473Z,12.29
2018-03-06T11:34:17.467Z,12.54
2018-03-06T11:35:17.460Z,12.65
2018-03-06T11:36:17.454Z,12.57
2018-03-06T11:37:17.530Z,12.70
2018-03-06T11:38:17.442Z,12.57
2018-03-06T11:39:17.433Z,12.57
2018-03-06T11:41:17.423Z,12.72
2018-03-06T11:42:17.417Z,12.86
2018-03-06T11:43:17.430Z,12.80
2018-03-06T11:44:17.407Z,12.68
2018-03-06T11:45:17.403Z,12.75
2018-03-06T11:46:17.394Z,12.58
2018-03-06T11:47:17.383Z,12.42
2018-03-06T11:48:17.377Z,12.50
2018-03-06T11:49:17.376Z,12.57
2018-03-06T11:50:17.365Z,12.65
2018-03-06T11:51:17.421Z,12.58
2018-03-06T11:52:17.351Z,12.43
2018-03-06T11:53:17.346Z,12.32
2018-03-06T11:54:17.544Z,12.43
2018-03-06T11:55:17.335Z,12.55
2018-03-06T11:56:17.326Z,12.42
2018-03-06T11:57:17.320Z,12.40
2018-03-06T11:58:17.313Z,12.40
2018-03-06T11:59:17.307Z,12.53
2018-03-06T12:00:17.300Z,12.60
2018-03-06T12:01:17.294Z,12.60
2018-03-06T12:02:17.289Z,12.67
2018-03-06T12:03:17.282Z,12.57
2018-03-06T12:04:17.276Z,12.55
2018-03-06T12:05:17.269Z,12.73
2018-03-06T12:06:17.263Z,12.86
2018-03-06T12:07:17.461Z,12.57
2018-03-06T12:08:17.250Z,12.47
2018-03-06T12:09:17.244Z,12.54
2018-03-06T12:10:17.442Z,12.55
2018-03-06T12:11:17.231Z,12.75
2018-03-06T12:12:17.256Z,12.70
2018-03-06T12:13:17.240Z,12.75
2018-03-06T12:14:17.215Z,12.80
2018-03-06T12:15:17.205Z,12.90
2018-03-06T12:16:17.262Z,12.91
2018-03-06T12:17:17.204Z,12.90
2018-03-06T12:18:17.191Z,13.00
2018-03-06T12:19:17.180Z,13.22
2018-03-06T12:20:17.174Z,13.12
2018-03-06T12:21:17.167Z,13.20
2018-03-06T12:22:17.164Z,13.30
2018-03-06T12:23:17.159Z,13.00
2018-03-06T12:24:17.353Z,13.12
2018-03-06T12:25:17.144Z,13.11
2018-03-06T12:26:17.142Z,13.05
2018-03-06T12:28:17.125Z,13.13
2018-03-06T12:29:17.119Z,13.13
2018-03-06T12:30:17.131Z,12.98
2018-03-06T12:31:17.110Z,12.80
2018-03-06T12:32:17.101Z,12.93
2018-03-06T12:33:17.096Z,12.86
2018-03-06T12:34:17.091Z,12.87
2018-03-06T12:35:17.088Z,13.01
2018-03-06T12:36:17.076Z,12.98
2018-03-06T12:37:17.070Z,13.09
2018-03-06T12:38:17.130Z,12.97
2018-03-06T12:39:17.059Z,12.82
2018-03-06T12:40:17.051Z,12.85
2018-03-06T12:41:17.076Z,12.61
2018-03-06T12:42:17.038Z,12.45
2018-03-06T12:43:17.031Z,12.49
2018-03-06T12:44:17.027Z,12.36
2018-03-06T12:45:17.018Z,12.43
2018-03-06T12:46:17.013Z,12.43
2018-03-06T12:47:17.003Z,12.40
2018-03-06T12:48:16.995Z,12.54
2018-03-06T12:49:17.021Z,12.45
2018-03-06T12:50:16.982Z,12.54
2018-03-06T12:51:16.977Z,12.57
2018-03-06T12:52:17.174Z,12.75
2018-03-06T12:53:16.961Z,12.85
2018-03-06T12:54:16.954Z,12.78
2018-03-06T12:55:16.965Z,12.54
2018-03-06T12:56:16.941Z,12.64
2018-03-06T12:57:16.934Z,12.78
2018-03-06T12:58:16.926Z,12.72
2018-03-06T12:59:16.918Z,12.87
2018-03-06T13:00:16.912Z,12.85
2018-03-06T13:01:16.905Z,12.90
2018-03-06T13:02:16.898Z,13.01
2018-03-06T13:03:17.094Z,13.11
2018-03-06T13:04:16.886Z,13.20
2018-03-06T13:05:16.879Z,13.19
2018-03-06T13:06:16.876Z,13.31
2018-03-06T13:07:16.866Z,13.50
2018-03-06T13:08:16.861Z,13.70
2018-03-06T13:09:16.852Z,13.67
2018-03-06T13:10:16.847Z,13.68
2018-03-06T13:11:16.837Z,13.77
2018-03-06T13:12:16.836Z,13.89
2018-03-06T13:13:16.826Z,13.79
2018-03-06T13:14:16.819Z,13.95
2018-03-06T13:16:16.806Z,14.12
2018-03-06T13:17:16.800Z,14.15